sensor_id;sensor_type;location;lat;lon;timestamp;pressure;altitude;pressure_sealevel;temperature;humidity
18509;BME280;9383;50.928;12.116;2023-04-20T00:02:20;99074.16;;;3.87;100.00
18509;BME280;9383;50.928;12.116;2023-04-20T00:04:48;99073.28;;;3.87;100.00
18509;BME280;9383;50.928;12.116;2023-04-20T00:07:15;99082.88;;;3.88;100.00
18509;BME280;9383;50.928;12.116;2023-04-20T00:09:42;99069.78;;;3.88;100.00
18509;BME280;9383;50.928;12.116;2023-04-20T00:12:19;99076.78;;;3.92;100.00
18509;BME280;9383;50.928;12.116;2023-04-20T00:14:48;99068.88;;;3.95;100.00
18509;BME280;9383;50.928;12.116;2023-04-20T00:17:22;99067.09;;;3.97;100.00
18509;BME280;9383;50.928;12.116;2023-04-20T00:19:51;99073.22;;;3.98;100.00
18509;BME280;9383;50.928;12.116;2023-04-20T00:22:18;99069.72;;;3.99;100.00
18509;BME280;9383;50.928;12.116;2023-04-20T00:24:52;99068.84;;;3.98;100.00
18509;BME280;9383;50.928;12.116;2023-04-20T00:27:19;99064.50;;;3.97;100.00
18509;BME280;9383;50.928;12.116;2023-04-20T00:29:46;99057.47;;;3.98;100.00
18509;BME280;9383;50.928;12.116;2023-04-20T00:32:14;99060.09;;;3.98;100.00
18509;BME280;9383;50.928;12.116;2023-04-20T00:34:42;99062.72;;;3.98;100.00
18509;BME280;9383;50.928;12.116;2023-04-20T00:37:08;99069.72;;;3.99;100.00
18509;BME280;9383;50.928;12.116;2023-04-20T00:39:37;99061.88;;;3.99;100.00
18509;BME280;9383;50.928;12.116;2023-04-20T00:42:07;99058.34;;;3.98;100.00
18509;BME280;9383;50.928;12.116;2023-04-20T00:44:46;99060.94;;;4.01;100.00
18509;BME280;9383;50.928;12.116;2023-04-20T00:47:15;99064.44;;;4.03;100.00
18509;BME280;9383;50.928;12.116;2023-04-20T00:49:42;99057.44;;;4.02;100.00
18509;BME280;9383;50.928;12.116;2023-04-20T00:52:09;99056.59;;;4.00;100.00
18509;BME280;9383;50.928;12.116;2023-04-20T00:54:37;99060.09;;;3.99;100.00
18509;BME280;9383;50.928;12.116;2023-04-20T00:57:06;99054.84;;;3.99;100.00
18509;BME280;9383;50.928;12.116;2023-04-20T00:59:33;99054.81;;;4.02;100.00
18509;BME280;9383;50.928;12.116;2023-04-20T01:02:05;99053.94;;;4.03;100.00
18509;BME280;9383;50.928;12.116;2023-04-20T01:04:34;99050.44;;;4.04;100.00
18509;BME280;9383;50.928;12.116;2023-04-20T01:07:06;98993.84;;;3.72;100.00
18509;BME280;9383;50.928;12.116;2023-04-20T01:09:36;99053.91;;;4.08;100.00
18509;BME280;9383;50.928;12.116;2023-04-20T01:12:09;99051.28;;;4.10;100.00
18509;BME280;9383;50.928;12.116;2023-04-20T01:14:54;99051.28;;;4.10;100.00
18509;BME280;9383;50.928;12.116;2023-04-20T01:17:28;99044.31;;;4.08;100.00
18509;BME280;9383;50.928;12.116;2023-04-20T01:19:55;99038.16;;;4.08;100.00
18509;BME280;9383;50.928;12.116;2023-04-20T01:22:22;99035.59;;;4.06;100.00
18509;BME280;9383;50.928;12.116;2023-04-20T01:25:08;99034.69;;;4.06;100.00
18509;BME280;9383;50.928;12.116;2023-04-20T01:27:54;99039.94;;;4.06;100.00
18509;BME280;9383;50.928;12.116;2023-04-20T01:30:40;99040.81;;;4.06;100.00
18509;BME280;9383;50.928;12.116;2023-04-20T01:33:26;99036.47;;;4.05;100.00
18509;BME280;9383;50.928;12.116;2023-04-20T01:36:13;99032.97;;;4.06;100.00
18509;BME280;9383;50.928;12.116;2023-04-20T01:39:00;99041.69;;;4.08;100.00
18509;BME280;9383;50.928;12.116;2023-04-20T01:41:43;99034.66;;;4.12;100.00
18509;BME280;9383;50.928;12.116;2023-04-20T01:44:29;99025.06;;;4.10;100.00
18509;BME280;9383;50.928;12.116;2023-04-20T01:47:15;99024.16;;;4.09;100.00
18509;BME280;9383;50.928;12.116;2023-04-20T01:50:01;99020.66;;;4.10;100.00
18509;BME280;9383;50.928;12.116;2023-04-20T01:52:47;99027.66;;;4.13;100.00
18509;BME280;9383;50.928;12.116;2023-04-20T01:55:34;99015.41;;;4.13;100.00
18509;BME280;9383;50.928;12.116;2023-04-20T01:58:20;99011.03;;;4.14;100.00
18509;BME280;9383;50.928;12.116;2023-04-20T02:00:52;99018.00;;;4.15;100.00
18509;BME280;9383;50.928;12.116;2023-04-20T02:03:19;99016.28;;;4.15;100.00
18509;BME280;9383;50.928;12.116;2023-04-20T02:05:45;99011.88;;;4.16;100.00
18509;BME280;9383;50.928;12.116;2023-04-20T02:08:12;99016.25;;;4.17;100.00
18509;BME280;9383;50.928;12.116;2023-04-20T02:10:38;99019.75;;;4.17;100.00
18509;BME280;9383;50.928;12.116;2023-04-20T02:13:05;99018.00;;;4.18;100.00
18509;BME280;9383;50.928;12.116;2023-04-20T02:15:32;99022.38;;;4.17;100.00
18509;BME280;9383;50.928;12.116;2023-04-20T02:17:58;99021.50;;;4.18;100.00
18509;BME280;9383;50.928;12.116;2023-04-20T02:20:25;99031.97;;;4.20;100.00
18509;BME280;9383;50.928;12.116;2023-04-20T02:22:52;99018.84;;;4.21;100.00
18509;BME280;9383;50.928;12.116;2023-04-20T02:25:19;99020.56;;;4.22;100.00
18509;BME280;9383;50.928;12.116;2023-04-20T02:27:46;99016.22;;;4.23;100.00
18509;BME280;9383;50.928;12.116;2023-04-20T02:30:13;99022.34;;;4.24;100.00
18509;BME280;9383;50.928;12.116;2023-04-20T02:32:39;99014.44;;;4.25;100.00
18509;BME280;9383;50.928;12.116;2023-04-20T02:35:06;99026.66;;;4.28;100.00
18509;BME280;9383;50.928;12.116;2023-04-20T02:37:33;99018.78;;;4.28;100.00
18509;BME280;9383;50.928;12.116;2023-04-20T02:40:00;99026.63;;;4.29;100.00
18509;BME280;9383;50.928;12.116;2023-04-20T02:42:26;99027.53;;;4.30;100.00
18509;BME280;9383;50.928;12.116;2023-04-20T02:44:53;99021.38;;;4.31;100.00
18509;BME280;9383;50.928;12.116;2023-04-20T02:47:19;99024.91;;;4.31;100.00
18509;BME280;9383;50.928;12.116;2023-04-20T02:49:46;99021.38;;;4.32;100.00
18509;BME280;9383;50.928;12.116;2023-04-20T02:52:13;98959.56;;;3.97;100.00
18509;BME280;9383;50.928;12.116;2023-04-20T02:54:39;99022.25;;;4.33;100.00
18509;BME280;9383;50.928;12.116;2023-04-20T02:57:06;99024.88;;;4.34;100.00
18509;BME280;9383;50.928;12.116;2023-04-20T02:59:32;99023.09;;;4.35;100.00
18509;BME280;9383;50.928;12.116;2023-04-20T03:01:59;99005.59;;;4.35;100.00
18509;BME280;9383;50.928;12.116;2023-04-20T03:04:26;99010.84;;;4.37;100.00
18509;BME280;9383;50.928;12.116;2023-04-20T03:06:53;99011.72;;;4.39;100.00
18509;BME280;9383;50.928;12.116;2023-04-20T03:09:20;99006.47;;;4.39;100.00
18509;BME280;9383;50.928;12.116;2023-04-20T03:11:47;99013.44;;;4.40;100.00
18509;BME280;9383;50.928;12.116;2023-04-20T03:14:13;99015.19;;;4.41;100.00
18509;BME280;9383;50.928;12.116;2023-04-20T03:16:40;99002.06;;;4.43;100.00
18509;BME280;9383;50.928;12.116;2023-04-20T03:19:07;99009.06;;;4.42;100.00
18509;BME280;9383;50.928;12.116;2023-04-20T03:21:34;99004.69;;;4.43;100.00
18509;BME280;9383;50.928;12.116;2023-04-20T03:24:00;99006.44;;;4.42;100.00
18509;BME280;9383;50.928;12.116;2023-04-20T03:26:28;99010.78;;;4.43;100.00
18509;BME280;9383;50.928;12.116;2023-04-20T03:28:55;99006.44;;;4.42;100.00
18509;BME280;9383;50.928;12.116;2023-04-20T03:31:21;99011.66;;;4.44;100.00
18509;BME280;9383;50.928;12.116;2023-04-20T03:33:48;99006.41;;;4.44;100.00
18509;BME280;9383;50.928;12.116;2023-04-20T03:36:14;99004.66;;;4.44;100.00
18509;BME280;9383;50.928;12.116;2023-04-20T03:38:41;99012.53;;;4.46;100.00
18509;BME280;9383;50.928;12.116;2023-04-20T03:41:07;99005.50;;;4.46;100.00
18509;BME280;9383;50.928;12.116;2023-04-20T03:43:34;99003.75;;;4.47;100.00
18509;BME280;9383;50.928;12.116;2023-04-20T03:46:01;99000.25;;;4.46;100.00
18509;BME280;9383;50.928;12.116;2023-04-20T03:48:27;98996.78;;;4.46;100.00
18509;BME280;9383;50.928;12.116;2023-04-20T03:50:53;99002.03;;;4.46;100.00
18509;BME280;9383;50.928;12.116;2023-04-20T03:53:20;98999.38;;;4.47;100.00
18509;BME280;9383;50.928;12.116;2023-04-20T03:55:47;99006.34;;;4.48;100.00
18509;BME280;9383;50.928;12.116;2023-04-20T03:58:13;99002.00;;;4.49;100.00
18509;BME280;9383;50.928;12.116;2023-04-20T04:00:40;98999.38;;;4.49;100.00
18509;BME280;9383;50.928;12.116;2023-04-20T04:03:06;99003.72;;;4.50;100.00
18509;BME280;9383;50.928;12.116;2023-04-20T04:05:33;99007.22;;;4.50;100.00
18509;BME280;9383;50.928;12.116;2023-04-20T04:07:59;99003.72;;;4.50;100.00
18509;BME280;9383;50.928;12.116;2023-04-20T04:10:26;99002.88;;;4.48;100.00
18509;BME280;9383;50.928;12.116;2023-04-20T04:12:52;99003.75;;;4.47;100.00
18509;BME280;9383;50.928;12.116;2023-04-20T04:15:19;98995.88;;;4.45;100.00
18509;BME280;9383;50.928;12.116;2023-04-20T04:17:45;99001.16;;;4.42;100.00
18509;BME280;9383;50.928;12.116;2023-04-20T04:20:12;99005.53;;;4.42;100.00
18509;BME280;9383;50.928;12.116;2023-04-20T04:22:40;99004.69;;;4.41;100.00
18509;BME280;9383;50.928;12.116;2023-04-20T04:25:07;99002.06;;;4.40;100.00
18509;BME280;9383;50.928;12.116;2023-04-20T04:27:33;99000.31;;;4.40;100.00
18509;BME280;9383;50.928;12.116;2023-04-20T04:30:00;99002.94;;;4.39;100.00
18509;BME280;9383;50.928;12.116;2023-04-20T04:32:28;99013.44;;;4.39;100.00
18509;BME280;9383;50.928;12.116;2023-04-20T04:34:54;99009.97;;;4.38;100.00
18509;BME280;9383;50.928;12.116;2023-04-20T04:37:21;99009.94;;;4.40;100.00
18509;BME280;9383;50.928;12.116;2023-04-20T04:39:48;99014.31;;;4.41;100.00
18509;BME280;9383;50.928;12.116;2023-04-20T04:42:15;99016.91;;;4.41;100.00
18509;BME280;9383;50.928;12.116;2023-04-20T04:44:42;99005.53;;;4.42;100.00
18509;BME280;9383;50.928;12.116;2023-04-20T04:47:10;99009.94;;;4.43;100.00
18509;BME280;9383;50.928;12.116;2023-04-20T04:49:37;99011.66;;;4.44;100.00
18509;BME280;9383;50.928;12.116;2023-04-20T04:52:07;99016.88;;;4.47;100.00
18509;BME280;9383;50.928;12.116;2023-04-20T04:54:33;99016.00;;;4.48;100.00
18509;BME280;9383;50.928;12.116;2023-04-20T04:57:00;99012.47;;;4.50;100.00
18509;BME280;9383;50.928;12.116;2023-04-20T04:59:29;99008.06;;;4.54;100.00
18509;BME280;9383;50.928;12.116;2023-04-20T05:01:55;99013.31;;;4.57;100.00
18509;BME280;9383;50.928;12.116;2023-04-20T05:04:22;99014.16;;;4.59;100.00
18509;BME280;9383;50.928;12.116;2023-04-20T05:06:48;99019.38;;;4.62;100.00
18509;BME280;9383;50.928;12.116;2023-04-20T05:09:15;99017.59;;;4.64;100.00
18509;BME280;9383;50.928;12.116;2023-04-20T05:11:41;99021.94;;;4.69;100.00
18509;BME280;9383;50.928;12.116;2023-04-20T05:14:08;99019.28;;;4.72;100.00
18509;BME280;9383;50.928;12.116;2023-04-20T05:16:35;99025.38;;;4.75;100.00
18509;BME280;9383;50.928;12.116;2023-04-20T05:19:01;99024.47;;;4.78;100.00
18509;BME280;9383;50.928;12.116;2023-04-20T05:21:29;99027.94;;;4.80;100.00
18509;BME280;9383;50.928;12.116;2023-04-20T05:23:56;99019.19;;;4.81;100.00
18509;BME280;9383;50.928;12.116;2023-04-20T05:26:22;99020.00;;;4.85;100.00
18509;BME280;9383;50.928;12.116;2023-04-20T05:28:48;99020.91;;;4.85;100.00
18509;BME280;9383;50.928;12.116;2023-04-20T05:31:15;99022.63;;;4.86;100.00
18509;BME280;9383;50.928;12.116;2023-04-20T05:33:43;99024.38;;;4.87;100.00
18509;BME280;9383;50.928;12.116;2023-04-20T05:36:09;99028.72;;;4.90;100.00
18509;BME280;9383;50.928;12.116;2023-04-20T05:38:37;99031.31;;;4.91;100.00
18509;BME280;9383;50.928;12.116;2023-04-20T05:41:03;99033.06;;;4.92;100.00
18509;BME280;9383;50.928;12.116;2023-04-20T05:43:30;99044.44;;;4.95;100.00
18509;BME280;9383;50.928;12.116;2023-04-20T05:45:56;99045.34;;;4.93;100.00
18509;BME280;9383;50.928;12.116;2023-04-20T05:48:24;99053.19;;;4.95;100.00
18509;BME280;9383;50.928;12.116;2023-04-20T05:50:53;99061.91;;;4.99;100.00
18509;BME280;9383;50.928;12.116;2023-04-20T05:53:20;99059.28;;;4.99;100.00
18509;BME280;9383;50.928;12.116;2023-04-20T05:55:47;99065.34;;;5.04;100.00
18509;BME280;9383;50.928;12.116;2023-04-20T05:58:14;99060.97;;;5.06;100.00
18509;BME280;9383;50.928;12.116;2023-04-20T06:00:41;99070.53;;;5.12;100.00
18509;BME280;9383;50.928;12.116;2023-04-20T06:03:07;99065.25;;;5.13;100.00
18509;BME280;9383;50.928;12.116;2023-04-20T06:05:34;99071.34;;;5.18;100.00
18509;BME280;9383;50.928;12.116;2023-04-20T06:08:00;99078.34;;;5.18;100.00
18509;BME280;9383;50.928;12.116;2023-04-20T06:10:27;99080.09;;;5.20;100.00
18509;BME280;9383;50.928;12.116;2023-04-20T06:12:57;99083.56;;;5.21;100.00
18509;BME280;9383;50.928;12.116;2023-04-20T06:15:24;99088.88;;;5.19;100.00
18509;BME280;9383;50.928;12.116;2023-04-20T06:17:50;99082.75;;;5.16;100.00
18509;BME280;9383;50.928;12.116;2023-04-20T06:20:17;99095.00;;;5.15;100.00
18509;BME280;9383;50.928;12.116;2023-04-20T06:22:45;99094.16;;;5.15;100.00
18509;BME280;9383;50.928;12.116;2023-04-20T06:25:12;99086.31;;;5.09;100.00
18509;BME280;9383;50.928;12.116;2023-04-20T06:27:41;99092.50;;;5.03;100.00
18509;BME280;9383;50.928;12.116;2023-04-20T06:30:09;99090.81;;;4.99;100.00
18509;BME280;9383;50.928;12.116;2023-04-20T06:32:35;99092.59;;;4.97;100.00
18509;BME280;9383;50.928;12.116;2023-04-20T06:35:03;99100.47;;;4.97;100.00
18509;BME280;9383;50.928;12.116;2023-04-20T06:37:30;99096.06;;;4.97;100.00
18509;BME280;9383;50.928;12.116;2023-04-20T06:39:56;99090.81;;;5.00;100.00
18509;BME280;9383;50.928;12.116;2023-04-20T06:42:23;99094.28;;;5.02;100.00
18509;BME280;9383;50.928;12.116;2023-04-20T06:44:50;99088.09;;;5.05;100.00
18509;BME280;9383;50.928;12.116;2023-04-20T06:47:16;99095.97;;;5.08;100.00
18509;BME280;9383;50.928;12.116;2023-04-20T06:49:43;99087.19;;;5.11;100.00
18509;BME280;9383;50.928;12.116;2023-04-20T06:52:09;99088.94;;;5.09;100.00
18509;BME280;9383;50.928;12.116;2023-04-20T06:54:36;99095.06;;;5.12;100.00
18509;BME280;9383;50.928;12.116;2023-04-20T06:57:02;99087.13;;;5.15;100.00
18509;BME280;9383;50.928;12.116;2023-04-20T06:59:31;99099.38;;;5.19;100.00
18509;BME280;9383;50.928;12.116;2023-04-20T07:01:58;99098.44;;;5.24;100.00
18509;BME280;9383;50.928;12.116;2023-04-20T07:04:24;99096.63;;;5.29;100.00
18509;BME280;9383;50.928;12.116;2023-04-20T07:06:51;99099.25;;;5.32;100.00
18509;BME280;9383;50.928;12.116;2023-04-20T07:09:17;99095.72;;;5.33;100.00
18509;BME280;9383;50.928;12.116;2023-04-20T07:11:44;99089.50;;;5.40;100.00
18509;BME280;9383;50.928;12.116;2023-04-20T07:14:11;99084.19;;;5.46;100.00
18509;BME280;9383;50.928;12.116;2023-04-20T07:16:38;99087.59;;;5.53;100.00
18509;BME280;9383;50.928;12.116;2023-04-20T07:19:08;99097.13;;;5.62;100.00
18509;BME280;9383;50.928;12.116;2023-04-20T07:21:35;99093.56;;;5.68;100.00
18509;BME280;9383;50.928;12.116;2023-04-20T07:24:13;99096.09;;;5.75;100.00
18509;BME280;9383;50.928;12.116;2023-04-20T07:26:40;99094.31;;;5.77;100.00
18509;BME280;9383;50.928;12.116;2023-04-20T07:29:07;99089.88;;;5.80;100.00
18509;BME280;9383;50.928;12.116;2023-04-20T07:31:33;99093.31;;;5.86;100.00
18509;BME280;9383;50.928;12.116;2023-04-20T07:34:00;99089.72;;;5.94;100.00
18509;BME280;9383;50.928;12.116;2023-04-20T07:36:26;99083.50;;;6.01;100.00
18509;BME280;9383;50.928;12.116;2023-04-20T07:38:53;99080.78;;;6.09;100.00
18509;BME280;9383;50.928;12.116;2023-04-20T07:41:19;99084.25;;;6.11;100.00
18509;BME280;9383;50.928;12.116;2023-04-20T07:43:48;99090.38;;;6.11;100.00
18509;BME280;9383;50.928;12.116;2023-04-20T07:46:21;99083.34;;;6.13;100.00
18509;BME280;9383;50.928;12.116;2023-04-20T07:48:48;99092.94;;;6.16;100.00
18509;BME280;9383;50.928;12.116;2023-04-20T07:51:14;99086.78;;;6.17;100.00
18509;BME280;9383;50.928;12.116;2023-04-20T07:53:43;99082.41;;;6.17;100.00
18509;BME280;9383;50.928;12.116;2023-04-20T07:56:10;99081.44;;;6.23;100.00
18509;BME280;9383;50.928;12.116;2023-04-20T07:58:37;99079.59;;;6.30;100.00
18509;BME280;9383;50.928;12.116;2023-04-20T08:01:06;99083.81;;;6.39;100.00
18509;BME280;9383;50.928;12.116;2023-04-20T08:03:33;99090.69;;;6.49;100.00
18509;BME280;9383;50.928;12.116;2023-04-20T08:06:00;99091.47;;;6.56;100.00
18509;BME280;9383;50.928;12.116;2023-04-20T08:08:27;99097.56;;;6.59;100.00
18509;BME280;9383;50.928;12.116;2023-04-20T08:10:56;99095.72;;;6.65;100.00
18509;BME280;9383;50.928;12.116;2023-04-20T08:13:23;99097.44;;;6.67;100.00
18509;BME280;9383;50.928;12.116;2023-04-20T08:15:50;99100.00;;;6.72;100.00
18509;BME280;9383;50.928;12.116;2023-04-20T08:18:16;99099.06;;;6.74;100.00
18509;BME280;9383;50.928;12.116;2023-04-20T08:20:43;99098.25;;;6.71;99.85
18509;BME280;9383;50.928;12.116;2023-04-20T08:23:11;99105.22;;;6.73;100.00
18509;BME280;9383;50.928;12.116;2023-04-20T08:25:39;99090.97;;;6.85;100.00
18509;BME280;9383;50.928;12.116;2023-04-20T08:28:08;99083.72;;;6.98;100.00
18509;BME280;9383;50.928;12.116;2023-04-20T08:30:37;99085.38;;;7.04;100.00
18509;BME280;9383;50.928;12.116;2023-04-20T08:33:05;99093.22;;;7.07;100.00
18509;BME280;9383;50.928;12.116;2023-04-20T08:35:43;99078.22;;;7.11;100.00
18509;BME280;9383;50.928;12.116;2023-04-20T08:38:11;99074.53;;;7.20;100.00
18509;BME280;9383;50.928;12.116;2023-04-20T08:40:37;99073.41;;;7.33;100.00
18509;BME280;9383;50.928;12.116;2023-04-20T08:43:04;99078.34;;;7.50;100.00
18509;BME280;9383;50.928;12.116;2023-04-20T08:45:32;99071.97;;;7.62;100.00
18509;BME280;9383;50.928;12.116;2023-04-20T08:48:04;99071.91;;;7.64;99.14
18509;BME280;9383;50.928;12.116;2023-04-20T08:50:33;99078.91;;;7.66;98.67
18509;BME280;9383;50.928;12.116;2023-04-20T08:53:03;99077.81;;;7.75;98.74
18509;BME280;9383;50.928;12.116;2023-04-20T08:55:30;99073.16;;;7.88;98.82
18509;BME280;9383;50.928;12.116;2023-04-20T08:57:57;99072.81;;;8.03;96.18
18509;BME280;9383;50.928;12.116;2023-04-20T09:00:24;99070.84;;;8.13;90.48
18509;BME280;9383;50.928;12.116;2023-04-20T09:02:53;99072.38;;;8.24;91.61
18509;BME280;9383;50.928;12.116;2023-04-20T09:05:27;99083.63;;;8.32;91.28
18509;BME280;9383;50.928;12.116;2023-04-20T09:07:55;99079.16;;;8.36;91.28
18509;BME280;9383;50.928;12.116;2023-04-20T09:10:23;99078.16;;;8.40;91.07
18509;BME280;9383;50.928;12.116;2023-04-20T09:12:51;99073.63;;;8.45;90.13
18509;BME280;9383;50.928;12.116;2023-04-20T09:15:29;99072.66;;;8.49;90.60
18509;BME280;9383;50.928;12.116;2023-04-20T09:17:56;99067.16;;;8.58;91.74
18509;BME280;9383;50.928;12.116;2023-04-20T09:20:31;99086.31;;;8.68;92.08
18509;BME280;9383;50.928;12.116;2023-04-20T09:23:09;99081.63;;;8.80;91.87
18509;BME280;9383;50.928;12.116;2023-04-20T09:25:36;99074.25;;;8.93;91.75
18509;BME280;9383;50.928;12.116;2023-04-20T09:28:03;99080.22;;;9.01;90.34
18509;BME280;9383;50.928;12.116;2023-04-20T09:30:41;99078.16;;;9.12;89.79
18509;BME280;9383;50.928;12.116;2023-04-20T09:33:08;99076.19;;;9.19;89.20
18509;BME280;9383;50.928;12.116;2023-04-20T09:35:38;99078.56;;;9.28;89.28
18509;BME280;9383;50.928;12.116;2023-04-20T09:38:08;99084.50;;;9.38;88.89
18509;BME280;9383;50.928;12.116;2023-04-20T09:40:35;99085.13;;;9.47;87.75
18509;BME280;9383;50.928;12.116;2023-04-20T09:43:08;99091.63;;;9.36;83.64
18509;BME280;9383;50.928;12.116;2023-04-20T09:45:37;99093.47;;;9.33;84.03
18509;BME280;9383;50.928;12.116;2023-04-20T09:48:08;99083.88;;;9.28;83.77
18509;BME280;9383;50.928;12.116;2023-04-20T09:50:37;99093.84;;;9.19;84.04
18509;BME280;9383;50.928;12.116;2023-04-20T09:53:04;99092.13;;;9.16;85.22
18509;BME280;9383;50.928;12.116;2023-04-20T09:55:31;99090.38;;;9.17;85.54
18509;BME280;9383;50.928;12.116;2023-04-20T09:58:01;99099.88;;;9.24;85.64
18509;BME280;9383;50.928;12.116;2023-04-20T10:00:28;99094.31;;;9.33;85.68
18509;BME280;9383;50.928;12.116;2023-04-20T10:02:56;99077.34;;;9.42;85.82
18509;BME280;9383;50.928;12.116;2023-04-20T10:05:36;99077.03;;;9.53;85.61
18509;BME280;9383;50.928;12.116;2023-04-20T10:08:05;99081.06;;;9.66;85.67
18509;BME280;9383;50.928;12.116;2023-04-20T10:10:43;99072.72;;;9.80;85.61
18509;BME280;9383;50.928;12.116;2023-04-20T10:13:10;99071.69;;;9.86;84.54
18509;BME280;9383;50.928;12.116;2023-04-20T10:15:41;99068.94;;;9.89;83.29
18509;BME280;9383;50.928;12.116;2023-04-20T10:18:17;99065.16;;;9.96;82.43
18509;BME280;9383;50.928;12.116;2023-04-20T10:20:43;99056.13;;;10.04;82.71
18509;BME280;9383;50.928;12.116;2023-04-20T10:23:10;99054.97;;;10.12;83.65
18509;BME280;9383;50.928;12.116;2023-04-20T10:25:39;99057.38;;;10.20;82.56
18509;BME280;9383;50.928;12.116;2023-04-20T10:28:07;99053.19;;;10.13;80.07
18509;BME280;9383;50.928;12.116;2023-04-20T10:30:37;99063.94;;;10.08;80.46
18509;BME280;9383;50.928;12.116;2023-04-20T10:33:14;99056.41;;;9.94;78.95
18509;BME280;9383;50.928;12.116;2023-04-20T10:38:13;99061.16;;;9.83;77.42
18509;BME280;9383;50.928;12.116;2023-04-20T10:40:41;99045.34;;;9.81;78.07
18509;BME280;9383;50.928;12.116;2023-04-20T10:43:20;99035.81;;;9.76;77.78
18509;BME280;9383;50.928;12.116;2023-04-20T10:45:48;99040.34;;;9.70;76.69
18509;BME280;9383;50.928;12.116;2023-04-20T10:48:15;99023.06;;;9.59;77.34
18509;BME280;9383;50.928;12.116;2023-04-20T10:50:41;99024.91;;;9.56;78.22
18509;BME280;9383;50.928;12.116;2023-04-20T10:53:17;99034.00;;;9.46;75.26
18509;BME280;9383;50.928;12.116;2023-04-20T10:55:45;99031.50;;;9.41;74.90
18509;BME280;9383;50.928;12.116;2023-04-20T10:58:21;99029.19;;;9.29;73.27
18509;BME280;9383;50.928;12.116;2023-04-20T11:00:57;99031.41;;;9.13;73.67
18509;BME280;9383;50.928;12.116;2023-04-20T11:03:25;99032.59;;;9.01;74.13
18509;BME280;9383;50.928;12.116;2023-04-20T11:05:52;99033.44;;;9.03;74.87
18509;BME280;9383;50.928;12.116;2023-04-20T11:08:19;99028.22;;;9.00;73.94
18509;BME280;9383;50.928;12.116;2023-04-20T11:10:46;99017.66;;;9.00;71.74
18509;BME280;9383;50.928;12.116;2023-04-20T11:13:20;99019.31;;;9.03;73.25
18509;BME280;9383;50.928;12.116;2023-04-20T11:15:54;99015.00;;;9.00;73.70
18509;BME280;9383;50.928;12.116;2023-04-20T11:18:21;99015.16;;;8.94;74.39
18509;BME280;9383;50.928;12.116;2023-04-20T11:20:51;99010.78;;;8.93;74.82
18509;BME280;9383;50.928;12.116;2023-04-20T11:23:19;98994.09;;;8.91;74.77
18509;BME280;9383;50.928;12.116;2023-04-20T11:25:54;99003.78;;;8.92;75.44
18509;BME280;9383;50.928;12.116;2023-04-20T11:28:21;98995.81;;;8.93;76.30
18509;BME280;9383;50.928;12.116;2023-04-20T11:30:48;98994.84;;;8.96;77.33
18509;BME280;9383;50.928;12.116;2023-04-20T11:33:26;98998.13;;;9.04;78.11
18509;BME280;9383;50.928;12.116;2023-04-20T11:36:04;98997.19;;;9.07;77.82
18509;BME280;9383;50.928;12.116;2023-04-20T11:38:33;99006.09;;;9.03;76.70
18509;BME280;9383;50.928;12.116;2023-04-20T11:41:00;99001.69;;;9.03;77.21
18509;BME280;9383;50.928;12.116;2023-04-20T11:43:31;99011.47;;;9.01;78.15
18509;BME280;9383;50.928;12.116;2023-04-20T11:45:59;99005.38;;;8.97;77.29
18509;BME280;9383;50.928;12.116;2023-04-20T11:48:31;99004.81;;;8.84;77.20
18509;BME280;9383;50.928;12.116;2023-04-20T11:50:58;99017.31;;;8.79;77.50
18509;BME280;9383;50.928;12.116;2023-04-20T11:53:25;99016.59;;;8.74;76.89
18509;BME280;9383;50.928;12.116;2023-04-20T11:55:52;99010.44;;;8.72;78.05
18509;BME280;9383;50.928;12.116;2023-04-20T11:58:21;99006.06;;;8.71;79.13
18509;BME280;9383;50.928;12.116;2023-04-20T12:00:50;99001.63;;;8.73;79.81
18509;BME280;9383;50.928;12.116;2023-04-20T12:03:17;99006.00;;;8.74;79.06
18509;BME280;9383;50.928;12.116;2023-04-20T12:05:44;99003.41;;;8.72;78.73
18509;BME280;9383;50.928;12.116;2023-04-20T12:08:10;99003.56;;;8.66;78.84
18509;BME280;9383;50.928;12.116;2023-04-20T12:10:38;99001.91;;;8.62;80.30
18509;BME280;9383;50.928;12.116;2023-04-20T12:13:06;99006.31;;;8.62;80.19
18509;BME280;9383;50.928;12.116;2023-04-20T12:15:33;99012.56;;;8.59;80.01
18509;BME280;9383;50.928;12.116;2023-04-20T12:17:59;99016.81;;;8.65;81.21
18509;BME280;9383;50.928;12.116;2023-04-20T12:20:26;99011.22;;;8.76;81.99
18509;BME280;9383;50.928;12.116;2023-04-20T12:22:53;99004.69;;;8.91;82.67
18509;BME280;9383;50.928;12.116;2023-04-20T12:25:19;99000.69;;;9.07;83.21
18509;BME280;9383;50.928;12.116;2023-04-20T12:27:46;99001.38;;;9.14;80.32
18509;BME280;9383;50.928;12.116;2023-04-20T12:30:13;98995.94;;;9.20;80.36
18509;BME280;9383;50.928;12.116;2023-04-20T12:32:41;98996.78;;;9.21;80.12
18509;BME280;9383;50.928;12.116;2023-04-20T12:35:10;98988.91;;;9.19;80.89
18509;BME280;9383;50.928;12.116;2023-04-20T12:37:37;98989.97;;;9.13;81.13
18509;BME280;9383;50.928;12.116;2023-04-20T12:40:04;98994.34;;;9.14;82.15
18509;BME280;9383;50.928;12.116;2023-04-20T12:42:31;98989.88;;;9.17;81.32
18509;BME280;9383;50.928;12.116;2023-04-20T12:44:58;98991.69;;;9.14;81.09
18509;BME280;9383;50.928;12.116;2023-04-20T12:47:25;98988.16;;;9.14;81.40
18509;BME280;9383;50.928;12.116;2023-04-20T12:49:52;98986.28;;;9.19;82.10
18509;BME280;9383;50.928;12.116;2023-04-20T12:52:20;98982.50;;;9.28;83.38
18509;BME280;9383;50.928;12.116;2023-04-20T12:54:47;98972.59;;;9.35;83.22
18509;BME280;9383;50.928;12.116;2023-04-20T12:57:15;98972.38;;;9.42;83.74
18509;BME280;9383;50.928;12.116;2023-04-20T12:59:42;98972.13;;;9.50;83.83
18509;BME280;9383;50.928;12.116;2023-04-20T13:02:10;98964.69;;;9.63;84.87
18509;BME280;9383;50.928;12.116;2023-04-20T13:04:37;98966.97;;;9.76;84.28
18509;BME280;9383;50.928;12.116;2023-04-20T13:07:04;98957.88;;;9.84;83.49
18509;BME280;9383;50.928;12.116;2023-04-20T13:09:31;98948.09;;;9.87;83.27
18509;BME280;9383;50.928;12.116;2023-04-20T13:11:58;98951.75;;;9.82;82.86
18509;BME280;9383;50.928;12.116;2023-04-20T13:14:25;98949.25;;;9.78;83.13